createdAt,value
2023-02-09T00:00:18.785Z,82.47
2023-02-09T00:02:46.037Z,82.10
2023-02-09T00:05:13.280Z,82.03
2023-02-09T00:07:40.587Z,81.90
2023-02-09T00:10:07.997Z,82.29
2023-02-09T00:12:56.105Z,82.10
2023-02-09T00:15:23.240Z,81.78
2023-02-09T00:17:50.293Z,82.44
2023-02-09T00:20:17.472Z,81.76
2023-02-09T00:22:44.591Z,82.00
2023-02-09T00:25:11.662Z,82.48
2023-02-09T00:27:38.847Z,82.17
2023-02-09T00:30:06.476Z,82.38
2023-02-09T00:32:33.643Z,82.73
2023-02-09T00:35:00.903Z,82.77
2023-02-09T00:37:28.740Z,82.58
2023-02-09T00:39:55.852Z,82.33
2023-02-09T00:42:22.973Z,82.54
2023-02-09T00:44:50.380Z,83.26
2023-02-09T00:47:17.621Z,82.83
2023-02-09T00:49:44.845Z,82.70
2023-02-09T00:52:11.994Z,82.81
2023-02-09T00:54:39.278Z,82.24
2023-02-09T00:57:06.493Z,82.16
2023-02-09T00:59:35.532Z,82.68
2023-02-09T01:02:03.664Z,82.50
2023-02-09T01:04:30.909Z,82.95
2023-02-09T01:06:58.218Z,83.26
2023-02-09T01:09:25.627Z,82.74
2023-02-09T01:11:52.747Z,83.30
2023-02-09T01:14:19.999Z,82.63
2023-02-09T01:16:47.109Z,83.15
2023-02-09T01:19:14.523Z,83.65
2023-02-09T01:21:42.132Z,83.37
2023-02-09T01:24:13.219Z,82.91
2023-02-09T01:26:41.300Z,82.85
2023-02-09T01:29:08.856Z,82.93
2023-02-09T01:31:36.346Z,83.04
2023-02-09T01:34:04.617Z,82.88
2023-02-09T01:36:33.015Z,83.56
2023-02-09T01:39:01.948Z,83.40
2023-02-09T01:41:29.841Z,83.21
2023-02-09T01:44:19.382Z,82.73
2023-02-09T01:46:46.847Z,83.16
2023-02-09T01:49:16.543Z,83.28
2023-02-09T01:51:47.055Z,82.99
2023-02-09T01:54:19.142Z,83.64
2023-02-09T01:56:52.506Z,83.86
2023-02-09T01:59:20.251Z,83.96
2023-02-09T02:01:47.825Z,83.61
2023-02-09T02:04:17.053Z,83.89
2023-02-09T02:06:44.203Z,84.10
2023-02-09T02:09:16.951Z,84.11
2023-02-09T02:11:47.606Z,84.25
2023-02-09T02:14:36.130Z,84.49
2023-02-09T02:17:21.288Z,83.95
2023-02-09T02:20:07.123Z,83.58
2023-02-09T02:22:41.734Z,84.15
2023-02-09T02:25:43.014Z,84.78
2023-02-09T02:28:34.845Z,84.77
2023-02-09T02:31:26.363Z,84.89
2023-02-09T02:33:59.214Z,84.38
2023-02-09T02:36:41.164Z,84.48
2023-02-09T02:39:26.391Z,84.69
2023-02-09T02:42:21.083Z,84.95
2023-02-09T02:45:22.404Z,84.67
2023-02-09T02:48:24.961Z,84.43
2023-02-09T02:51:17.251Z,85.12
2023-02-09T02:53:50.019Z,84.82
2023-02-09T02:56:24.450Z,84.96
2023-02-09T02:58:55.020Z,84.83
2023-02-09T03:01:26.780Z,85.03
2023-02-09T03:03:57.536Z,84.55
2023-02-09T03:06:24.763Z,85.27
2023-02-09T03:08:55.174Z,85.55
2023-02-09T03:11:25.185Z,85.38
2023-02-09T03:14:01.186Z,85.46
2023-02-09T03:16:40.616Z,85.73
2023-02-09T03:19:25.611Z,85.62
2023-02-09T03:22:19.941Z,85.47
2023-02-09T03:24:55.601Z,85.70
2023-02-09T03:27:27.667Z,85.02
2023-02-09T03:29:59.350Z,85.24
2023-02-09T03:32:27.341Z,84.85
2023-02-09T03:34:55.778Z,85.17
2023-02-09T03:37:23.594Z,85.14
2023-02-09T03:39:50.850Z,85.22
2023-02-09T03:42:17.893Z,84.43
2023-02-09T03:44:45.119Z,84.59
2023-02-09T03:47:12.187Z,85.25
2023-02-09T03:49:41.682Z,85.30
2023-02-09T03:52:11.579Z,84.50
2023-02-09T03:54:38.626Z,84.57
2023-02-09T03:57:06.690Z,84.62
2023-02-09T03:59:37.919Z,84.82
2023-02-09T04:02:08.137Z,84.34
2023-02-09T04:04:36.203Z,84.18
2023-02-09T04:07:04.082Z,84.27
2023-02-09T04:09:31.156Z,84.74
2023-02-09T04:11:58.278Z,84.58
2023-02-09T04:14:25.418Z,83.91
2023-02-09T04:16:52.573Z,84.06
2023-02-09T04:19:19.622Z,83.94
2023-02-09T04:21:46.816Z,84.30
2023-02-09T04:24:14.017Z,83.88
2023-02-09T04:26:41.198Z,84.06
2023-02-09T04:29:08.630Z,83.58
2023-02-09T04:31:35.960Z,83.21
2023-02-09T04:34:03.053Z,83.35
2023-02-09T04:36:30.267Z,83.50
2023-02-09T04:38:57.360Z,83.20
2023-02-09T04:41:24.579Z,83.04
2023-02-09T04:43:51.801Z,82.57
2023-02-09T04:46:19.378Z,82.43
2023-02-09T04:48:46.978Z,82.55
2023-02-09T04:51:14.315Z,82.46
2023-02-09T04:53:41.860Z,82.60
2023-02-09T04:56:09.643Z,82.21
2023-02-09T04:58:55.089Z,82.05
2023-02-09T05:01:24.477Z,82.03
2023-02-09T05:03:52.629Z,81.76
2023-02-09T05:06:19.905Z,82.13
2023-02-09T05:08:47.207Z,81.62
2023-02-09T05:11:14.600Z,81.84
2023-02-09T05:13:41.936Z,81.87
2023-02-09T05:16:12.661Z,81.83
2023-02-09T05:18:39.845Z,81.19
2023-02-09T05:21:06.917Z,81.67
2023-02-09T05:23:34.149Z,81.05
2023-02-09T05:26:01.245Z,81.58
2023-02-09T05:28:28.529Z,81.19
2023-02-09T05:30:55.774Z,80.79
2023-02-09T05:33:24.868Z,80.79
2023-02-09T05:35:53.765Z,81.23
2023-02-09T05:38:20.881Z,81.09
2023-02-09T05:40:48.260Z,81.86
2023-02-09T05:43:15.502Z,81.27
2023-02-09T05:45:42.642Z,81.22
2023-02-09T05:48:09.697Z,81.94
2023-02-09T05:50:37.339Z,82.21
2023-02-09T05:53:08.304Z,81.98
2023-02-09T05:55:35.579Z,82.02
2023-02-09T05:58:02.750Z,81.96
2023-02-09T06:00:30.143Z,81.60
2023-02-09T06:02:57.482Z,82.57
2023-02-09T06:05:25.250Z,82.10
2023-02-09T06:07:52.559Z,81.75
2023-02-09T06:10:20.211Z,82.73
2023-02-09T06:12:47.759Z,82.02
2023-02-09T06:15:18.849Z,82.70
2023-02-09T06:17:46.561Z,81.91
2023-02-09T06:20:13.785Z,81.67
2023-02-09T06:22:40.928Z,82.26
2023-02-09T06:25:08.242Z,82.13
2023-02-09T06:27:36.199Z,82.26
2023-02-09T06:30:03.857Z,83.24
2023-02-09T06:32:30.978Z,82.88
2023-02-09T06:34:58.120Z,83.39
2023-02-09T06:37:25.331Z,83.36
2023-02-09T06:39:52.455Z,82.63
2023-02-09T06:42:19.592Z,83.38
2023-02-09T06:44:46.809Z,83.07
2023-02-09T06:47:13.944Z,83.20
2023-02-09T06:49:41.078Z,83.68
2023-02-09T06:52:08.390Z,83.68
2023-02-09T06:54:35.467Z,83.03
2023-02-09T06:57:02.556Z,83.73
2023-02-09T06:59:29.658Z,83.22
2023-02-09T07:01:56.869Z,83.41
2023-02-09T07:04:23.890Z,82.77
2023-02-09T07:06:50.928Z,82.72
2023-02-09T07:09:17.990Z,82.77
2023-02-09T07:11:45.159Z,83.23
2023-02-09T07:14:12.336Z,82.15
2023-02-09T07:16:39.551Z,82.35
2023-02-09T07:19:06.730Z,82.84
2023-02-09T07:21:33.978Z,82.45
2023-02-09T07:24:01.102Z,82.29
2023-02-09T07:26:28.237Z,81.96
2023-02-09T07:28:55.272Z,82.00
2023-02-09T07:31:22.541Z,82.44
2023-02-09T07:33:49.713Z,82.45
2023-02-09T07:36:17.315Z,82.33
2023-02-09T07:38:45.655Z,82.30
2023-02-09T07:41:18.369Z,82.13
2023-02-09T07:43:46.816Z,82.03
2023-02-09T07:46:19.132Z,81.78
2023-02-09T07:48:46.303Z,82.09
2023-02-09T07:51:16.221Z,81.66
2023-02-09T07:53:43.663Z,81.12
2023-02-09T07:56:10.747Z,81.34
2023-02-09T07:58:37.965Z,81.26
2023-02-09T08:01:07.631Z,80.65
2023-02-09T08:03:39.323Z,80.64
2023-02-09T08:06:26.015Z,80.81
2023-02-09T08:08:57.600Z,80.64
2023-02-09T08:11:28.767Z,80.57
2023-02-09T08:13:57.866Z,80.16
2023-02-09T08:16:30.562Z,80.00
2023-02-09T08:19:02.126Z,79.82
2023-02-09T08:21:34.150Z,79.02
2023-02-09T08:24:01.735Z,78.83
2023-02-09T08:26:30.169Z,78.40
2023-02-09T08:28:58.279Z,77.47
2023-02-09T08:31:25.492Z,77.76
2023-02-09T08:33:52.959Z,76.78
2023-02-09T08:36:21.290Z,76.14
2023-02-09T08:38:48.543Z,75.51
2023-02-09T08:41:17.237Z,75.04
2023-02-09T08:43:51.826Z,74.38
2023-02-09T08:46:19.310Z,73.60
2023-02-09T08:48:47.744Z,72.38
2023-02-09T08:51:17.862Z,71.49
2023-02-09T08:53:52.435Z,70.56
2023-02-09T08:56:21.391Z,70.44
2023-02-09T08:58:50.376Z,69.88
2023-02-09T09:01:17.603Z,68.11
2023-02-09T09:03:44.887Z,67.67
2023-02-09T09:06:12.555Z,67.23
2023-02-09T09:08:40.777Z,66.64
2023-02-09T09:11:13.136Z,66.21
2023-02-09T09:13:42.090Z,64.75
2023-02-09T09:16:21.176Z,64.44
2023-02-09T09:18:49.250Z,63.85
2023-02-09T09:21:18.652Z,63.24
2023-02-09T09:23:46.804Z,62.93
2023-02-09T09:26:17.739Z,62.88
2023-02-09T09:28:44.893Z,62.33
2023-02-09T09:31:15.628Z,62.14
2023-02-09T09:33:43.285Z,62.08
2023-02-09T09:36:12.108Z,61.78
2023-02-09T09:38:39.770Z,62.04
2023-02-09T09:41:21.083Z,61.49
2023-02-09T09:43:49.014Z,61.84
2023-02-09T09:46:21.346Z,61.12
2023-02-09T09:48:52.768Z,61.21
2023-02-09T09:51:28.963Z,61.30
2023-02-09T09:53:59.649Z,61.10
2023-02-09T09:56:30.660Z,61.01
2023-02-09T09:58:59.537Z,60.90
2023-02-09T10:01:29.040Z,60.93
2023-02-09T10:04:02.721Z,60.85
2023-02-09T10:06:34.232Z,61.17
2023-02-09T10:09:12.429Z,61.21
2023-02-09T10:11:48.498Z,61.03
2023-02-09T10:14:16.264Z,61.03
2023-02-09T10:16:45.020Z,61.38
2023-02-09T10:19:21.701Z,60.54
2023-02-09T10:21:49.679Z,61.09
2023-02-09T10:24:32.101Z,61.20
2023-02-09T10:27:22.326Z,60.70
2023-02-09T10:29:49.253Z,60.89
2023-02-09T10:32:21.370Z,60.98
2023-02-09T10:34:51.925Z,60.96
2023-02-09T10:37:21.820Z,60.74
2023-02-09T10:40:25.817Z,60.84
2023-02-09T10:43:01.795Z,60.95
2023-02-09T10:45:37.605Z,60.81
2023-02-09T10:48:13.647Z,60.62
2023-02-09T10:51:00.153Z,60.24
2023-02-09T10:53:29.945Z,60.55
2023-02-09T10:56:21.347Z,61.15
2023-02-09T10:59:04.758Z,60.42
2023-02-09T11:01:42.187Z,60.39
2023-02-09T11:04:27.657Z,59.89
2023-02-09T11:06:59.138Z,60.83
2023-02-09T11:09:39.474Z,60.77
2023-02-09T11:12:11.446Z,60.41
2023-02-09T11:14:38.932Z,60.78
2023-02-09T11:17:19.754Z,60.15
2023-02-09T11:20:31.035Z,60.26
2023-02-09T11:23:26.109Z,60.10
2023-02-09T11:26:28.822Z,60.37
2023-02-09T11:29:34.386Z,60.20
2023-02-09T11:32:04.232Z,60.52
2023-02-09T11:34:37.107Z,60.35
2023-02-09T11:37:38.112Z,60.07
2023-02-09T11:40:08.095Z,59.64
2023-02-09T11:42:57.335Z,59.87
2023-02-09T11:45:44.836Z,59.98
2023-02-09T11:48:28.692Z,59.84
2023-02-09T11:51:11.983Z,59.34
2023-02-09T11:53:51.499Z,59.25
2023-02-09T11:56:21.389Z,59.12
2023-02-09T11:58:57.439Z,59.20
2023-02-09T12:01:47.556Z,59.36
2023-02-09T12:04:20.490Z,58.70
2023-02-09T12:06:56.524Z,58.28
2023-02-09T12:09:42.370Z,57.87
2023-02-09T12:12:15.581Z,57.47
2023-02-09T12:14:54.499Z,57.51
2023-02-09T12:17:25.537Z,57.42
2023-02-09T12:20:02.874Z,57.64
2023-02-09T12:22:35.841Z,58.19
2023-02-09T12:25:12.398Z,58.38
2023-02-09T12:27:47.286Z,58.07
2023-02-09T12:30:40.686Z,57.33
2023-02-09T12:33:25.161Z,57.14
2023-02-09T12:36:05.789Z,56.30
2023-02-09T12:38:54.678Z,56.33
2023-02-09T12:41:24.621Z,56.30
2023-02-09T12:44:25.285Z,56.18
2023-02-09T12:46:55.891Z,56.21
2023-02-09T12:49:28.579Z,55.82
2023-02-09T12:52:01.565Z,55.61
2023-02-09T12:54:31.720Z,55.90
2023-02-09T12:57:17.061Z,56.33
2023-02-09T12:59:50.687Z,56.22
2023-02-09T13:02:33.367Z,57.37
2023-02-09T13:05:12.621Z,57.76
2023-02-09T13:07:54.848Z,58.38
2023-02-09T13:10:22.156Z,58.71
2023-02-09T13:12:58.949Z,59.09
2023-02-09T13:15:33.742Z,59.29
2023-02-09T13:18:16.431Z,58.89
2023-02-09T13:21:08.062Z,59.54
2023-02-09T13:23:53.608Z,59.05
2023-02-09T13:26:26.962Z,59.96
2023-02-09T13:29:21.449Z,60.92
2023-02-09T13:32:13.595Z,61.03
2023-02-09T13:34:53.859Z,60.81
2023-02-09T13:37:30.016Z,61.08
2023-02-09T13:40:03.089Z,61.39
2023-02-09T13:42:35.375Z,61.17
2023-02-09T13:45:02.693Z,60.89
2023-02-09T13:47:29.973Z,60.86
2023-02-09T13:50:13.404Z,60.79
2023-02-09T13:52:40.500Z,60.48
2023-02-09T13:55:17.374Z,59.78
2023-02-09T13:58:07.305Z,60.05
2023-02-09T14:00:45.924Z,59.43
2023-02-09T14:03:18.793Z,59.13
2023-02-09T14:05:57.914Z,58.57
2023-02-09T14:08:26.943Z,58.24
2023-02-09T14:11:41.179Z,58.48
2023-02-09T14:14:52.486Z,58.36
2023-02-09T14:17:35.841Z,57.76
2023-02-09T14:20:03.658Z,57.42
2023-02-09T14:22:34.067Z,57.22
2023-02-09T14:25:06.129Z,56.67
2023-02-09T14:27:39.365Z,56.91
2023-02-09T14:30:19.053Z,57.22
2023-02-09T14:32:48.577Z,57.58
2023-02-09T14:35:20.080Z,57.33
2023-02-09T14:37:48.776Z,57.36
2023-02-09T14:40:21.481Z,57.68
2023-02-09T14:43:22.257Z,57.30
2023-02-09T14:45:59.063Z,57.65
2023-02-09T14:48:28.878Z,57.82
2023-02-09T14:50:59.840Z,57.62
2023-02-09T14:53:30.072Z,58.06
2023-02-09T14:55:57.992Z,58.51
2023-02-09T14:58:28.172Z,58.28
2023-02-09T15:00:56.125Z,58.47
2023-02-09T15:03:24.222Z,58.83
2023-02-09T15:05:59.137Z,58.89
2023-02-09T15:08:28.843Z,58.90
2023-02-09T15:10:59.521Z,59.03
2023-02-09T15:13:30.515Z,59.21
2023-02-09T15:15:57.750Z,59.42
2023-02-09T15:18:27.027Z,59.60
2023-02-09T15:20:54.414Z,59.77
2023-02-09T15:23:21.622Z,60.00
2023-02-09T15:25:48.932Z,60.55
2023-02-09T15:28:28.828Z,60.69
2023-02-09T15:30:57.781Z,60.50
2023-02-09T15:33:26.997Z,61.02
2023-02-09T15:35:54.700Z,61.33
2023-02-09T15:38:22.041Z,61.49
2023-02-09T15:41:08.933Z,61.63
2023-02-09T15:43:54.751Z,61.66
2023-02-09T15:46:40.707Z,61.86
2023-02-09T15:49:07.939Z,62.03
2023-02-09T15:51:37.965Z,62.09
2023-02-09T15:54:15.739Z,62.33
2023-02-09T15:56:43.216Z,62.45
2023-02-09T15:59:19.228Z,62.67
2023-02-09T16:01:46.510Z,62.66
2023-02-09T16:04:14.765Z,62.87
2023-02-09T16:06:51.914Z,62.70
2023-02-09T16:09:26.952Z,62.80
2023-02-09T16:11:54.284Z,63.07
2023-02-09T16:14:23.640Z,62.94
2023-02-09T16:16:51.659Z,63.28
2023-02-09T16:19:21.591Z,63.51
2023-02-09T16:21:56.615Z,63.09
2023-02-09T16:24:31.795Z,63.56
2023-02-09T16:27:04.853Z,63.52
2023-02-09T16:29:31.957Z,63.25
2023-02-09T16:31:58.991Z,63.56
2023-02-09T16:34:26.110Z,63.80
2023-02-09T16:36:53.197Z,63.64
2023-02-09T16:39:22.475Z,63.93
2023-02-09T16:41:52.921Z,63.86
2023-02-09T16:44:26.022Z,64.33
2023-02-09T16:46:56.102Z,64.37
2023-02-09T16:49:37.027Z,64.24
2023-02-09T16:52:12.870Z,64.53
2023-02-09T16:54:45.867Z,64.37
2023-02-09T16:57:16.220Z,64.62
2023-02-09T16:59:43.995Z,65.04
2023-02-09T17:02:37.163Z,66.00
2023-02-09T17:05:20.265Z,65.95
2023-02-09T17:07:54.819Z,65.59
2023-02-09T17:10:27.478Z,64.90
2023-02-09T17:12:54.612Z,65.15
2023-02-09T17:15:30.564Z,65.79
2023-02-09T17:18:04.179Z,65.52
2023-02-09T17:20:42.687Z,66.04
2023-02-09T17:23:23.322Z,65.84
2023-02-09T17:25:51.833Z,65.78
2023-02-09T17:28:19.651Z,66.46
2023-02-09T17:30:48.179Z,65.92
2023-02-09T17:33:27.101Z,66.16
2023-02-09T17:36:24.158Z,66.35
2023-02-09T17:38:44.818Z,66.26
2023-02-09T17:41:15.135Z,66.62
2023-02-09T17:43:42.910Z,66.06
2023-02-09T17:46:16.572Z,66.29
2023-02-09T17:48:43.735Z,66.50
2023-02-09T17:51:20.305Z,66.39
2023-02-09T17:53:47.772Z,66.47
2023-02-09T17:56:16.722Z,66.25
2023-02-09T17:58:44.737Z,65.97
2023-02-09T18:01:28.578Z,65.97
2023-02-09T18:03:57.553Z,66.47
2023-02-09T18:06:42.703Z,65.33
2023-02-09T18:09:14.837Z,65.79
2023-02-09T18:11:45.072Z,65.96
2023-02-09T18:14:16.702Z,65.63
2023-02-09T18:16:44.909Z,65.56
2023-02-09T18:19:12.939Z,65.31
2023-02-09T18:21:53.490Z,65.46
2023-02-09T18:24:22.864Z,65.34
2023-02-09T18:26:51.318Z,65.29
2023-02-09T18:29:20.359Z,65.64
2023-02-09T18:31:47.489Z,65.60
2023-02-09T18:34:15.726Z,65.79
2023-02-09T18:36:43.016Z,65.14
2023-02-09T18:39:10.263Z,65.44
2023-02-09T18:41:37.329Z,65.18
2023-02-09T18:44:04.339Z,65.22
2023-02-09T18:46:34.379Z,64.74
2023-02-09T18:49:03.504Z,64.58
2023-02-09T18:51:31.516Z,64.08
2023-02-09T18:53:59.168Z,64.17
2023-02-09T18:56:28.598Z,63.78
2023-02-09T18:58:55.815Z,63.67
2023-02-09T19:01:24.583Z,63.45
2023-02-09T19:03:54.400Z,62.88
2023-02-09T19:06:22.253Z,61.86
2023-02-09T19:08:50.758Z,62.20
2023-02-09T19:11:21.658Z,62.01
2023-02-09T19:14:07.681Z,61.82
2023-02-09T19:16:38.069Z,61.63
2023-02-09T19:19:06.374Z,61.59
2023-02-09T19:21:34.929Z,61.05
2023-02-09T19:24:03.851Z,60.98
2023-02-09T19:26:31.334Z,61.23
2023-02-09T19:28:59.517Z,61.04
2023-02-09T19:31:31.713Z,61.14
2023-02-09T19:33:59.699Z,60.70
2023-02-09T19:36:28.203Z,61.38
2023-02-09T19:38:58.689Z,61.32
2023-02-09T19:41:27.470Z,61.71
2023-02-09T19:43:57.977Z,61.69
2023-02-09T19:46:26.814Z,61.77
2023-02-09T19:48:54.151Z,62.03
2023-02-09T19:51:21.869Z,62.52
2023-02-09T19:53:49.196Z,62.81
2023-02-09T19:56:19.669Z,62.93
2023-02-09T19:58:47.166Z,63.05
2023-02-09T20:01:14.382Z,63.14
2023-02-09T20:03:41.622Z,63.26
2023-02-09T20:06:10.840Z,62.74
2023-02-09T20:08:38.452Z,63.08
2023-02-09T20:11:15.502Z,63.20
2023-02-09T20:13:42.742Z,63.48
2023-02-09T20:16:19.231Z,63.29
2023-02-09T20:18:49.077Z,63.33
2023-02-09T20:21:18.205Z,63.90
2023-02-09T20:23:46.798Z,63.85
2023-02-09T20:26:22.837Z,63.74
2023-02-09T20:28:50.373Z,63.53
2023-02-09T20:31:23.313Z,63.86
2023-02-09T20:33:50.522Z,63.55
2023-02-09T20:36:18.780Z,63.80
2023-02-09T20:38:46.748Z,63.22
2023-02-09T20:41:17.801Z,63.27
2023-02-09T20:44:04.381Z,62.64
2023-02-09T20:46:52.045Z,62.70
2023-02-09T20:49:19.521Z,62.40
2023-02-09T20:51:47.419Z,62.73
2023-02-09T20:54:15.622Z,62.53
2023-02-09T20:56:43.759Z,62.02
2023-02-09T20:59:12.742Z,62.33
2023-02-09T21:01:40.431Z,62.11
2023-02-09T21:04:08.761Z,62.10
2023-02-09T21:06:37.793Z,62.52
2023-02-09T21:09:09.036Z,62.16
2023-02-09T21:11:36.307Z,62.22
2023-02-09T21:14:03.412Z,62.06
2023-02-09T21:16:31.080Z,62.33
2023-02-09T21:18:59.184Z,61.94
2023-02-09T21:21:27.343Z,62.48
2023-02-09T21:23:54.805Z,62.55
2023-02-09T21:26:25.361Z,62.70
2023-02-09T21:28:57.891Z,62.57
2023-02-09T21:31:27.590Z,62.47
2023-02-09T21:33:55.069Z,62.87
2023-02-09T21:36:22.218Z,62.88
2023-02-09T21:38:49.491Z,62.79
2023-02-09T21:41:40.578Z,63.55
2023-02-09T21:44:12.853Z,63.29
2023-02-09T21:46:39.967Z,63.64
2023-02-09T21:49:07.935Z,63.66
2023-02-09T21:51:35.445Z,63.81
2023-02-09T21:54:02.708Z,64.16
2023-02-09T21:56:29.787Z,63.94
2023-02-09T21:58:57.029Z,64.57
2023-02-09T22:01:24.185Z,64.36
2023-02-09T22:03:57.395Z,64.24
2023-02-09T22:06:25.723Z,64.39
2023-02-09T22:08:53.013Z,63.88
2023-02-09T22:11:20.111Z,64.20
2023-02-09T22:13:47.212Z,63.93
2023-02-09T22:16:20.020Z,64.05
2023-02-09T22:18:47.189Z,64.30
2023-02-09T22:21:14.277Z,64.25
2023-02-09T22:23:41.446Z,64.33
2023-02-09T22:26:08.597Z,64.11
2023-02-09T22:28:36.514Z,64.28
2023-02-09T22:31:08.692Z,63.67
2023-02-09T22:33:36.571Z,64.18
2023-02-09T22:36:18.518Z,64.05
2023-02-09T22:38:45.705Z,64.28
2023-02-09T22:41:23.886Z,64.07
2023-02-09T22:44:01.420Z,64.33
2023-02-09T22:46:35.408Z,64.09
2023-02-09T22:49:06.102Z,64.63
2023-02-09T22:51:34.715Z,64.28
2023-02-09T22:54:02.887Z,64.14
2023-02-09T22:56:31.077Z,64.02
2023-02-09T22:58:59.618Z,64.21
2023-02-09T23:01:28.418Z,64.36
2023-02-09T23:03:55.756Z,64.28
2023-02-09T23:06:27.320Z,64.30
2023-02-09T23:08:59.725Z,64.17
2023-02-09T23:11:27.244Z,64.21
2023-02-09T23:14:08.426Z,64.34
2023-02-09T23:16:37.545Z,64.29
2023-02-09T23:19:07.426Z,64.72
2023-02-09T23:21:38.992Z,64.48
2023-02-09T23:24:07.417Z,64.54
2023-02-09T23:26:35.476Z,64.98
2023-02-09T23:29:05.691Z,65.07
2023-02-09T23:31:32.867Z,65.05
2023-02-09T23:34:00.055Z,64.96
2023-02-09T23:36:29.815Z,64.92
2023-02-09T23:39:00.225Z,65.14
2023-02-09T23:41:28.069Z,65.64
2023-02-09T23:43:56.238Z,65.12
2023-02-09T23:46:27.978Z,65.95
2023-02-09T23:48:56.205Z,65.51
2023-02-09T23:51:32.193Z,65.46
2023-02-09T23:54:03.745Z,65.46
2023-02-09T23:56:37.032Z,65.78
2023-02-09T23:59:07.712Z,65.88
